createdAt,value
2022-08-18T00:00:03.345Z,99034.00
2022-08-18T00:02:32.762Z,99031.72
2022-08-18T00:05:00.837Z,99028.16
2022-08-18T00:07:32.752Z,99042.81
2022-08-18T00:12:33.496Z,99038.75
2022-08-18T00:15:04.701Z,99037.34
2022-08-18T00:17:34.648Z,99047.56
2022-08-18T00:20:03.122Z,99049.06
2022-08-18T00:22:31.011Z,99043.00
2022-08-18T00:27:29.749Z,99073.34
2022-08-18T00:30:00.229Z,99105.94
2022-08-18T00:32:33.538Z,99131.91
2022-08-18T00:37:38.628Z,99110.59
2022-08-18T00:40:09.427Z,99106.13
2022-08-18T00:42:43.873Z,99105.75
2022-08-18T00:45:15.421Z,99114.66
2022-08-18T00:47:43.455Z,99104.47
2022-08-18T00:50:18.626Z,99105.97
2022-08-18T00:52:51.067Z,99114.56
2022-08-18T00:55:20.003Z,99103.41
2022-08-18T00:57:50.885Z,99106.41
2022-08-18T01:00:19.479Z,99107.22
2022-08-18T01:05:28.459Z,99106.28
2022-08-18T01:07:56.492Z,99104.53
2022-08-18T01:10:25.637Z,99110.56
2022-08-18T01:12:56.048Z,99104.69
2022-08-18T01:15:29.037Z,99107.38
2022-08-18T01:18:16.697Z,99103.41
2022-08-18T01:21:11.257Z,99090.31
2022-08-18T01:23:41.479Z,99095.38
2022-08-18T01:28:40.879Z,99099.59
2022-08-18T01:33:42.245Z,99103.88
2022-08-18T01:36:16.503Z,99109.03
2022-08-18T01:41:26.357Z,99113.13
2022-08-18T01:46:27.430Z,99103.06
2022-08-18T01:48:55.353Z,99100.25
2022-08-18T01:51:38.889Z,99109.59
2022-08-18T01:54:12.657Z,99106.88
2022-08-18T01:56:42.315Z,99103.38
2022-08-18T01:59:13.703Z,99100.06
2022-08-18T02:01:50.439Z,99091.38
2022-08-18T02:04:41.360Z,99091.06
2022-08-18T02:09:43.194Z,99080.31
2022-08-18T02:12:12.283Z,99083.47
2022-08-18T02:14:40.817Z,99086.91
2022-08-18T02:17:11.120Z,99076.81
2022-08-18T02:19:40.909Z,99072.84
2022-08-18T02:22:09.965Z,99059.44
2022-08-18T02:24:38.444Z,99063.41
2022-08-18T02:27:08.759Z,99067.00
2022-08-18T02:29:37.547Z,99060.06
2022-08-18T02:32:06.891Z,99050.88
2022-08-18T02:34:34.926Z,99062.19
2022-08-18T02:37:03.408Z,99065.06
2022-08-18T02:39:31.679Z,99062.25
2022-08-18T02:41:59.686Z,99062.69
2022-08-18T02:44:28.886Z,99055.72
2022-08-18T02:46:56.798Z,99057.31
2022-08-18T02:49:25.480Z,99062.69
2022-08-18T02:51:54.184Z,99054.91
2022-08-18T02:54:24.131Z,99065.97
2022-08-18T02:56:54.063Z,99063.91
2022-08-18T02:59:25.311Z,99057.56
2022-08-18T03:01:56.642Z,99055.97
2022-08-18T03:04:29.822Z,99058.03
2022-08-18T03:07:02.072Z,99060.91
2022-08-18T03:09:30.837Z,99049.63
2022-08-18T03:11:59.855Z,99053.94
2022-08-18T03:14:28.191Z,99053.47
2022-08-18T03:16:58.236Z,99063.22
2022-08-18T03:19:28.481Z,99058.94
2022-08-18T03:21:59.395Z,99058.38
2022-08-18T03:24:32.915Z,99058.00
2022-08-18T03:27:02.374Z,99054.88
2022-08-18T03:29:32.726Z,99065.72
2022-08-18T03:37:00.855Z,99066.56
2022-08-18T03:39:29.834Z,99060.22
2022-08-18T03:42:01.573Z,99065.88
2022-08-18T03:44:31.539Z,99067.16
2022-08-18T03:47:00.408Z,99054.84
2022-08-18T03:49:29.785Z,99052.47
2022-08-18T03:54:31.134Z,99057.94
2022-08-18T03:57:00.275Z,99043.75
2022-08-18T03:59:30.735Z,99054.59
2022-08-18T04:01:58.858Z,99053.97
2022-08-18T04:04:29.641Z,99042.47
2022-08-18T04:07:00.174Z,99043.66
2022-08-18T04:09:30.844Z,99043.28
2022-08-18T04:12:03.639Z,99042.28
2022-08-18T04:14:32.811Z,99037.53
2022-08-18T04:17:00.956Z,99024.75
2022-08-18T04:19:31.055Z,99028.81
2022-08-18T04:21:59.094Z,99022.97
2022-08-18T04:27:01.114Z,99012.34
2022-08-18T04:29:29.639Z,99016.28
2022-08-18T04:31:57.775Z,99012.84
2022-08-18T04:34:25.616Z,99002.03
2022-08-18T04:36:54.795Z,99004.47
2022-08-18T04:39:24.107Z,99001.63
2022-08-18T04:41:52.573Z,99012.38
2022-08-18T04:44:21.767Z,99029.25
2022-08-18T04:46:52.220Z,99022.00
2022-08-18T04:49:21.667Z,99026.88
2022-08-18T04:52:34.278Z,99036.69
2022-08-18T04:54:54.752Z,99042.25
2022-08-18T04:57:23.161Z,99056.63
2022-08-18T04:59:52.541Z,99049.31
2022-08-18T05:02:22.585Z,99056.03
2022-08-18T05:04:52.565Z,99059.78
2022-08-18T05:07:23.695Z,99057.91
2022-08-18T05:09:52.071Z,99051.75
2022-08-18T05:12:25.991Z,99054.72
2022-08-18T05:14:57.419Z,99049.25
2022-08-18T05:17:30.400Z,99054.97
2022-08-18T05:22:31.111Z,99056.34
2022-08-18T05:25:04.427Z,99066.72
2022-08-18T05:30:04.582Z,99071.41
2022-08-18T05:32:47.859Z,99073.44
2022-08-18T05:35:21.443Z,99077.38
2022-08-18T05:38:04.646Z,99084.13
2022-08-18T05:40:33.071Z,99088.78
2022-08-18T05:43:03.395Z,99087.69
2022-08-18T05:45:31.439Z,99091.44
2022-08-18T05:48:01.609Z,99095.13
2022-08-18T05:50:33.176Z,99090.44
2022-08-18T05:53:13.349Z,99101.38
2022-08-18T05:56:03.743Z,99101.25
2022-08-18T05:58:36.663Z,99098.50
2022-08-18T06:01:08.984Z,99100.59
2022-08-18T06:03:45.151Z,99090.03
2022-08-18T06:06:20.900Z,99085.41
2022-08-18T06:08:57.446Z,99094.13
2022-08-18T06:11:25.891Z,99093.44
2022-08-18T06:13:59.538Z,99092.44
2022-08-18T06:16:41.726Z,99100.97
2022-08-18T06:19:28.078Z,99095.13
2022-08-18T06:22:04.696Z,99099.69
2022-08-18T06:24:39.655Z,99099.00
2022-08-18T06:27:16.197Z,99091.66
2022-08-18T06:29:58.248Z,99077.69
2022-08-18T06:32:36.851Z,99072.53
2022-08-18T06:35:18.239Z,99072.94
2022-08-18T06:38:13.857Z,99075.41
2022-08-18T06:40:41.897Z,99081.97
2022-08-18T06:43:15.811Z,99078.00
2022-08-18T06:45:52.217Z,99068.56
2022-08-18T06:48:28.359Z,99065.75
2022-08-18T06:53:53.701Z,99049.03
2022-08-18T06:56:26.883Z,99067.31
2022-08-18T06:58:55.394Z,99061.44
2022-08-18T07:01:26.317Z,99074.22
2022-08-18T07:03:58.299Z,99079.84
2022-08-18T07:06:30.952Z,99096.78
2022-08-18T07:09:20.585Z,99102.81
2022-08-18T07:12:01.180Z,99109.06
2022-08-18T07:14:29.078Z,99111.91
2022-08-18T07:17:12.909Z,99113.84
2022-08-18T07:19:41.436Z,99112.25
2022-08-18T07:22:11.777Z,99108.06
2022-08-18T07:24:42.681Z,99108.31
2022-08-18T07:27:13.249Z,99119.13
2022-08-18T07:32:34.492Z,99121.72
2022-08-18T07:35:08.329Z,99129.31
2022-08-18T07:37:42.127Z,99133.81
2022-08-18T07:40:20.993Z,99145.47
2022-08-18T07:43:01.268Z,99137.91
2022-08-18T07:45:35.723Z,99147.56
2022-08-18T07:48:34.970Z,99150.25
2022-08-18T07:53:55.760Z,99153.09
2022-08-18T07:56:34.872Z,99145.63
2022-08-18T07:59:10.519Z,99141.91
2022-08-18T08:01:45.244Z,99139.16
2022-08-18T08:04:26.342Z,99143.03
2022-08-18T08:07:22.900Z,99150.53
2022-08-18T08:09:58.230Z,99155.72
2022-08-18T08:12:34.607Z,99150.34
2022-08-18T08:15:13.689Z,99162.31
2022-08-18T08:17:54.233Z,99163.44
2022-08-18T08:20:32.935Z,99165.34
2022-08-18T08:23:17.387Z,99171.84
2022-08-18T08:26:00.708Z,99171.22
2022-08-18T08:31:35.914Z,99161.66
2022-08-18T08:34:06.641Z,99166.25
2022-08-18T08:36:40.050Z,99154.38
2022-08-18T08:39:13.504Z,99153.63
2022-08-18T08:41:45.931Z,99150.00
2022-08-18T08:44:21.524Z,99164.88
2022-08-18T08:46:56.515Z,99165.81
2022-08-18T08:49:33.743Z,99164.41
2022-08-18T08:52:12.134Z,99169.22
2022-08-18T08:54:46.790Z,99163.16
2022-08-18T08:57:17.326Z,99161.41
2022-08-18T08:59:47.796Z,99167.53
2022-08-18T09:02:47.926Z,99167.22
2022-08-18T09:05:21.074Z,99164.50
2022-08-18T09:08:22.219Z,99164.06
2022-08-18T09:11:23.350Z,99165.88
2022-08-18T09:14:27.094Z,99164.72
2022-08-18T09:17:12.066Z,99168.38
2022-08-18T09:20:09.391Z,99157.47
2022-08-18T09:22:47.927Z,99158.97
2022-08-18T09:25:34.044Z,99158.88
2022-08-18T09:28:12.629Z,99157.38
2022-08-18T09:30:47.608Z,99168.53
2022-08-18T09:33:34.715Z,99166.69
2022-08-18T09:36:25.836Z,99154.72
2022-08-18T09:39:18.518Z,99162.91
2022-08-18T09:41:54.416Z,99163.00
2022-08-18T09:45:05.018Z,99169.31
2022-08-18T09:48:02.945Z,99161.56
2022-08-18T09:51:18.262Z,99159.72
2022-08-18T09:54:13.655Z,99169.84
2022-08-18T09:57:08.636Z,99170.13
2022-08-18T09:59:59.668Z,99166.72
2022-08-18T10:03:06.210Z,99175.63
2022-08-18T10:05:36.599Z,99189.53
2022-08-18T10:08:35.282Z,99186.47
2022-08-18T10:11:24.402Z,99192.53
2022-08-18T10:14:08.281Z,99175.81
2022-08-18T10:17:16.016Z,99165.06
2022-08-18T10:19:48.959Z,99170.84
2022-08-18T10:22:39.581Z,99169.53
2022-08-18T10:25:22.994Z,99167.00
2022-08-18T10:27:59.505Z,99159.25
2022-08-18T10:31:09.772Z,99168.25
2022-08-18T10:33:59.792Z,99175.00
2022-08-18T10:37:01.731Z,99169.63
2022-08-18T10:39:46.538Z,99161.44
2022-08-18T10:45:07.676Z,99155.38
2022-08-18T10:47:39.291Z,99140.72
2022-08-18T10:50:19.635Z,99143.31
2022-08-18T10:56:04.120Z,99127.88
2022-08-18T10:58:45.470Z,99105.91
2022-08-18T11:01:30.990Z,99098.94
2022-08-18T11:04:14.514Z,99094.28
2022-08-18T11:07:07.870Z,99092.09
2022-08-18T11:15:48.001Z,99073.72
2022-08-18T11:18:32.078Z,99078.59
2022-08-18T11:24:16.100Z,99066.50
2022-08-18T11:26:58.900Z,99069.94
2022-08-18T11:29:32.149Z,99062.13
2022-08-18T11:34:45.451Z,99023.16
2022-08-18T11:37:25.610Z,99028.41
2022-08-18T11:42:31.167Z,99033.16
2022-08-18T11:45:07.898Z,99049.53
2022-08-18T11:47:39.008Z,99056.88
2022-08-18T11:50:12.501Z,99080.69
2022-08-18T11:52:54.021Z,99087.88
2022-08-18T11:55:31.861Z,99099.16
2022-08-18T11:58:02.436Z,99075.28
2022-08-18T12:00:53.584Z,99067.75
2022-08-18T12:06:27.094Z,99082.34
2022-08-18T12:09:00.482Z,99077.38
2022-08-18T12:11:31.445Z,99066.94
2022-08-18T12:14:30.773Z,99054.97
2022-08-18T12:16:59.763Z,99056.09
2022-08-18T12:19:31.064Z,99061.31
2022-08-18T12:22:01.574Z,99063.63
2022-08-18T12:24:36.797Z,99059.06
2022-08-18T12:27:20.336Z,99059.47
2022-08-18T12:29:52.196Z,99070.81
2022-08-18T12:40:32.567Z,99057.66
2022-08-18T12:45:31.140Z,99044.09
2022-08-18T12:48:04.416Z,99034.69
2022-08-18T12:53:06.124Z,99018.69
2022-08-18T13:03:09.773Z,98993.38
2022-08-18T13:05:38.405Z,98990.00
2022-08-18T13:08:12.456Z,98975.25
2022-08-18T13:10:45.461Z,98966.44
2022-08-18T13:13:14.253Z,98964.16
2022-08-18T13:18:28.580Z,98959.09
2022-08-18T13:23:25.636Z,98972.91
2022-08-18T13:26:01.406Z,98963.63
2022-08-18T13:33:33.835Z,98951.75
2022-08-18T13:36:09.862Z,98949.94
2022-08-18T13:41:06.443Z,98939.50
2022-08-18T13:46:09.955Z,98925.19
2022-08-18T13:58:53.318Z,98917.47
2022-08-18T14:01:45.317Z,98922.78
2022-08-18T14:06:46.787Z,98933.34
2022-08-18T14:09:27.681Z,98919.94
2022-08-18T14:17:17.064Z,98904.50
2022-08-18T14:20:04.637Z,98900.28
2022-08-18T14:22:50.382Z,98899.03
2022-08-18T14:28:04.541Z,98895.09
2022-08-18T14:30:33.472Z,98902.47
2022-08-18T14:33:03.052Z,98911.44
2022-08-18T14:36:04.378Z,98900.66
2022-08-18T14:40:49.410Z,98912.31
2022-08-18T14:45:53.832Z,98911.16
2022-08-18T14:53:29.290Z,98898.53
2022-08-18T15:00:58.224Z,98887.25
2022-08-18T15:03:31.565Z,98896.34
2022-08-18T15:08:35.405Z,98882.66
2022-08-18T15:11:06.223Z,98887.88
2022-08-18T15:13:41.441Z,98871.22
2022-08-18T15:16:13.484Z,98877.59
2022-08-18T15:26:57.880Z,98878.63
2022-08-18T15:34:31.621Z,98885.22
2022-08-18T15:37:09.922Z,98884.34
2022-08-18T15:39:37.992Z,98883.88
2022-08-18T15:44:39.851Z,98888.00
2022-08-18T15:47:12.627Z,98889.44
2022-08-18T15:49:41.809Z,98889.69
2022-08-18T15:54:42.344Z,98886.63
2022-08-18T16:00:02.259Z,98872.06
2022-08-18T16:02:30.187Z,98879.94
2022-08-18T16:05:09.206Z,98877.56
2022-08-18T16:10:10.452Z,98886.56
2022-08-18T16:12:38.294Z,98889.63
2022-08-18T16:17:43.058Z,98880.63
2022-08-18T16:25:16.555Z,98878.38
2022-08-18T16:27:45.439Z,98879.63
2022-08-18T16:37:42.333Z,98880.56
2022-08-18T16:40:10.765Z,98891.06
2022-08-18T16:42:38.762Z,98897.16
2022-08-18T16:45:08.959Z,98895.47
2022-08-18T16:47:38.978Z,98889.66
2022-08-18T16:55:08.656Z,98904.22
2022-08-18T17:00:42.443Z,98900.16
2022-08-18T17:03:29.450Z,98889.28
2022-08-18T17:06:01.651Z,98905.41
2022-08-18T17:08:29.636Z,98900.81
2022-08-18T17:10:58.821Z,98892.19
2022-08-18T17:13:26.682Z,98901.97
2022-08-18T17:15:54.502Z,98896.44
2022-08-18T17:18:22.323Z,98894.44
2022-08-18T17:20:50.468Z,98898.25
2022-08-18T17:23:18.947Z,98897.91
2022-08-18T17:28:23.846Z,98905.53
2022-08-18T17:30:54.505Z,98906.31
2022-08-18T17:33:27.401Z,98905.19
2022-08-18T17:35:58.533Z,98910.59
2022-08-18T17:38:29.993Z,98912.72
2022-08-18T17:40:59.010Z,98918.66
2022-08-18T17:46:06.427Z,98925.72
2022-08-18T17:48:40.989Z,98922.91
2022-08-18T17:51:31.619Z,98926.75
2022-08-18T17:54:01.362Z,98929.50
2022-08-18T17:56:37.502Z,98938.88
2022-08-18T17:59:42.958Z,98931.19
2022-08-18T18:02:28.827Z,98935.59
2022-08-18T18:07:29.424Z,98935.31
2022-08-18T18:10:01.706Z,98932.28
2022-08-18T18:12:32.194Z,98924.16
2022-08-18T18:15:03.292Z,98929.22
2022-08-18T18:17:37.581Z,98927.38
2022-08-18T18:20:25.907Z,98923.31
2022-08-18T18:22:53.775Z,98914.34
2022-08-18T18:25:34.609Z,98924.38
2022-08-18T18:30:32.888Z,98922.13
2022-08-18T18:33:03.888Z,98914.88
2022-08-18T18:35:34.102Z,98914.41
2022-08-18T18:38:06.271Z,98923.66
2022-08-18T18:40:37.981Z,98926.31
2022-08-18T18:43:27.140Z,98921.94
2022-08-18T18:46:07.425Z,98927.31
2022-08-18T18:48:48.318Z,98930.47
2022-08-18T18:51:33.500Z,98931.72
2022-08-18T18:54:17.840Z,98931.41
2022-08-18T18:56:52.093Z,98934.28
2022-08-18T19:02:33.694Z,98942.50
2022-08-18T19:05:16.683Z,98947.75
2022-08-18T19:08:07.982Z,98943.63
2022-08-18T19:10:41.631Z,98940.31
2022-08-18T19:13:33.156Z,98947.56
2022-08-18T19:16:23.445Z,98942.38
2022-08-18T19:19:35.142Z,98950.59
2022-08-18T19:22:05.277Z,98956.75
2022-08-18T19:24:40.356Z,98947.59
2022-08-18T19:27:23.441Z,98955.81
2022-08-18T19:29:55.342Z,98959.28
2022-08-18T19:32:32.247Z,98952.81
2022-08-18T19:35:04.445Z,98954.69
2022-08-18T19:37:56.262Z,98955.28
2022-08-18T19:40:29.388Z,98957.03
2022-08-18T19:43:10.716Z,98956.72
2022-08-18T19:45:49.958Z,98957.03
2022-08-18T19:48:23.470Z,98957.16
2022-08-18T19:50:58.004Z,98958.91
2022-08-18T19:53:53.695Z,98954.66
2022-08-18T19:56:40.313Z,98953.53
2022-08-18T20:02:22.575Z,98954.97
2022-08-18T20:05:04.619Z,98959.84
2022-08-18T20:08:02.106Z,98956.03
2022-08-18T20:10:57.936Z,98954.31
2022-08-18T20:13:35.296Z,98952.25
2022-08-18T20:16:45.071Z,98947.34
2022-08-18T20:20:03.725Z,98947.19
2022-08-18T20:22:35.791Z,98939.28
2022-08-18T20:25:26.061Z,98941.19
2022-08-18T20:28:14.821Z,98946.84
2022-08-18T20:30:55.544Z,98943.69
2022-08-18T20:33:32.054Z,98950.78
2022-08-18T20:36:14.999Z,98953.78
2022-08-18T20:38:45.692Z,98959.78
2022-08-18T20:41:47.501Z,98969.06
2022-08-18T20:44:29.925Z,98962.78
2022-08-18T20:47:14.317Z,98965.13
2022-08-18T20:49:54.098Z,98965.13
2022-08-18T20:52:34.732Z,98969.19
2022-08-18T20:55:12.893Z,98968.84
2022-08-18T21:00:14.945Z,98982.78
2022-08-18T21:02:52.260Z,98981.66
2022-08-18T21:05:27.668Z,98985.25
2022-08-18T21:08:06.144Z,98979.56
2022-08-18T21:10:35.358Z,98974.06
2022-08-18T21:13:05.976Z,98974.41
2022-08-18T21:15:37.141Z,98972.47
2022-08-18T21:18:24.077Z,98975.41
2022-08-18T21:20:54.720Z,98973.97
2022-08-18T21:23:26.230Z,98989.13
2022-08-18T21:25:58.023Z,98989.75
2022-08-18T21:28:28.990Z,98987.06
2022-08-18T21:31:42.438Z,99002.84
2022-08-18T21:33:53.297Z,99004.53
2022-08-18T21:36:23.402Z,99010.06
2022-08-18T21:38:58.506Z,99012.44
2022-08-18T21:41:36.019Z,98999.19
2022-08-18T21:44:08.272Z,99008.16
2022-08-18T21:46:36.339Z,99004.53
2022-08-18T21:49:06.644Z,99009.28
2022-08-18T21:51:46.805Z,99011.53
2022-08-18T21:54:17.857Z,99004.72
2022-08-18T21:56:45.869Z,99009.72
2022-08-18T21:59:15.925Z,99016.66
2022-08-18T22:01:52.176Z,99023.06
2022-08-18T22:04:27.238Z,99023.56
2022-08-18T22:06:58.278Z,99028.28
2022-08-18T22:09:45.925Z,99030.69
2022-08-18T22:12:40.892Z,99033.19
2022-08-18T22:15:11.486Z,99038.84
2022-08-18T22:17:50.724Z,99039.28
2022-08-18T22:20:52.353Z,99050.50
2022-08-18T22:23:55.412Z,99052.69
2022-08-18T22:26:27.283Z,99064.41
2022-08-18T22:31:45.028Z,99053.59
2022-08-18T22:34:16.292Z,99066.31
2022-08-18T22:36:49.483Z,99059.56
2022-08-18T22:39:26.198Z,99059.88
2022-08-18T22:41:54.722Z,99048.19
2022-08-18T22:44:23.263Z,99052.81
2022-08-18T22:46:52.701Z,99051.94
2022-08-18T22:49:21.487Z,99062.91
2022-08-18T22:51:52.288Z,99056.59
2022-08-18T22:54:21.557Z,99060.25
2022-08-18T22:56:54.087Z,99055.00
2022-08-18T22:59:25.513Z,99053.28
2022-08-18T23:01:56.191Z,99049.88
2022-08-18T23:04:25.736Z,99034.16
2022-08-18T23:06:55.794Z,99032.81
2022-08-18T23:09:25.875Z,99029.50
2022-08-18T23:11:56.361Z,99019.25
2022-08-18T23:14:24.278Z,99023.53
2022-08-18T23:16:52.775Z,99035.03
2022-08-18T23:19:22.296Z,99032.03
2022-08-18T23:21:51.741Z,99037.22
2022-08-18T23:24:22.481Z,99036.94
2022-08-18T23:26:50.662Z,99045.03
2022-08-18T23:29:19.931Z,99038.50
2022-08-18T23:31:49.490Z,99047.91
2022-08-18T23:34:18.652Z,99045.63
2022-08-18T23:36:52.285Z,99028.69
2022-08-18T23:39:21.803Z,99022.78
2022-08-18T23:41:50.526Z,99015.72
2022-08-18T23:44:18.788Z,99017.13
2022-08-18T23:46:47.261Z,99008.88
2022-08-18T23:49:15.845Z,99001.00
2022-08-18T23:51:47.025Z,99002.69
2022-08-18T23:54:18.056Z,99006.53
2022-08-18T23:56:47.768Z,99010.28
2022-08-18T23:59:20.838Z,99009.03
